Time;durP1;ratioP1;P1;durP2;ratioP2;P2;SDS_P1;SDS_P2;PMS_P1;PMS_P2;Temp;Humidity;BMP_temperature;BMP_pressure;BME280_temperature;BME280_humidity;BME280_pressure;Samples;Min_cycle;Max_cycle;Signal;HPM_P1;HPM_P2
2021/04/30 00:01:35;;;;;;;16.10;6.10;;;;;;;;;;4360517;32;20139;-75
2021/04/30 00:04:00;;;;;;;16.20;5.63;;;;;;;;;;4360561;32;20168;-74
2021/04/30 00:06:25;;;;;;;16.00;5.67;;;;;;;;;;4360743;32;20210;-74
2021/04/30 00:08:50;;;;;;;13.57;5.50;;;;;;;;;;4360009;33;20169;-75
2021/04/30 00:11:16;;;;;;;16.63;6.10;;;;;;;;;;4359974;33;20524;-74
2021/04/30 00:13:41;;;;;;;14.63;5.37;;;;;;;;;;4360618;33;20199;-74
2021/04/30 00:16:09;;;;;;;15.97;5.83;;;;;;;;;;4360465;33;20135;-74
2021/04/30 00:18:35;;;;;;;17.07;6.10;;;;;;;;;;4360550;32;20143;-74
2021/04/30 00:21:01;;;;;;;19.97;6.47;;;;;;;;;;4359890;33;20165;-73
2021/04/30 00:23:28;;;;;;;18.07;6.20;;;;;;;;;;4359849;33;20191;-74
2021/04/30 00:25:59;;;;;;;19.43;6.10;;;;;;;;;;4359801;33;20202;-73
2021/04/30 00:28:24;;;;;;;20.50;6.43;;;;;;;;;;4358895;33;20162;-73
2021/04/30 00:30:53;;;;;;;18.07;5.80;;;;;;;;;;4359569;33;20193;-74
2021/04/30 00:33:19;;;;;;;11.90;5.73;;;;;;;;;;4360328;32;20179;-74
2021/04/30 00:35:44;;;;;;;18.93;5.87;;;;;;;;;;4359804;33;20135;-74
2021/04/30 00:38:10;;;;;;;19.03;6.13;;;;;;;;;;4347269;32;20166;-74
2021/04/30 00:40:35;;;;;;;18.90;5.67;;;;;;;;;;4362410;33;20498;-74
2021/04/30 00:43:01;;;;;;;20.33;6.90;;;;;;;;;;4363623;32;20135;-73
2021/04/30 00:45:26;;;;;;;16.43;6.23;;;;;;;;;;4362751;33;20162;-74
2021/04/30 00:47:53;;;;;;;15.33;6.30;;;;;;;;;;4362674;32;20214;-73
2021/04/30 00:50:19;;;;;;;20.50;5.70;;;;;;;;;;4361349;33;20254;-73
2021/04/30 00:52:44;;;;;;;15.17;5.70;;;;;;;;;;4363309;32;20136;-74
2021/04/30 00:55:11;;;;;;;14.97;6.40;;;;;;;;;;4362598;32;20180;-74
2021/04/30 00:57:38;;;;;;;23.33;6.03;;;;;;;;;;4362997;32;20162;-74
2021/04/30 01:00:06;;;;;;;17.60;5.67;;;;;;;;;;4362063;32;20229;-74
2021/04/30 01:02:32;;;;;;;11.90;4.93;;;;;;;;;;4363443;32;20139;-74
2021/04/30 01:04:58;;;;;;;13.07;4.50;;;;;;;;;;4362470;32;20155;-73
2021/04/30 01:07:24;;;;;;;12.40;4.87;;;;;;;;;;4362750;32;20135;-73
2021/04/30 01:09:49;;;;;;;14.90;4.67;;;;;;;;;;4362636;32;20207;-74
2021/04/30 01:12:14;;;;;;;13.07;4.60;;;;;;;;;;4362677;32;20131;-74
2021/04/30 01:14:39;;;;;;;12.10;4.17;;;;;;;;;;4362651;32;20143;-74
2021/04/30 01:17:05;;;;;;;15.30;4.63;;;;;;;;;;4362996;32;20242;-74
2021/04/30 01:19:31;;;;;;;17.37;4.33;;;;;;;;;;4362366;32;20211;-73
2021/04/30 01:21:57;;;;;;;12.43;3.97;;;;;;;;;;4362500;32;20169;-74
2021/04/30 01:24:23;;;;;;;11.77;4.60;;;;;;;;;;4363103;32;20158;-74
2021/04/30 01:26:48;;;;;;;18.50;4.77;;;;;;;;;;4362738;32;20256;-75
2021/04/30 01:29:14;;;;;;;13.27;4.57;;;;;;;;;;4361923;32;20178;-75
2021/04/30 01:31:40;;;;;;;16.30;5.17;;;;;;;;;;4361621;32;20155;-75
2021/04/30 01:34:05;;;;;;;13.97;4.70;;;;;;;;;;4349070;33;20222;-75
2021/04/30 01:36:31;;;;;;;13.03;4.50;;;;;;;;;;4362129;32;20158;-75
2021/04/30 01:39:02;;;;;;;13.10;4.37;;;;;;;;;;4361795;32;20178;-74
2021/04/30 01:41:27;;;;;;;13.73;4.20;;;;;;;;;;4362714;32;20147;-75
2021/04/30 01:43:52;;;;;;;10.23;4.27;;;;;;;;;;4362023;32;20131;-75
2021/04/30 01:46:18;;;;;;;13.67;4.03;;;;;;;;;;4362638;32;20208;-75
2021/04/30 01:48:43;;;;;;;10.77;4.27;;;;;;;;;;4362668;32;20159;-75
2021/04/30 01:51:09;;;;;;;15.87;3.87;;;;;;;;;;4361587;32;20581;-75
2021/04/30 01:53:35;;;;;;;13.57;4.20;;;;;;;;;;4362226;32;20189;-75
2021/04/30 01:56:07;;;;;;;14.23;4.27;;;;;;;;;;4362674;32;20185;-75
2021/04/30 01:58:32;;;;;;;16.00;4.03;;;;;;;;;;4362659;32;20139;-75
2021/04/30 02:00:58;;;;;;;13.90;4.00;;;;;;;;;;4362032;32;20135;-75
2021/04/30 02:03:23;;;;;;;10.33;4.17;;;;;;;;;;4373268;32;20201;-74
2021/04/30 02:05:49;;;;;;;13.40;4.60;;;;;;;;;;4361641;32;20233;-75
2021/04/30 02:08:15;;;;;;;9.67;4.00;;;;;;;;;;4361546;33;20422;-75
2021/04/30 02:10:41;;;;;;;15.53;4.30;;;;;;;;;;4361922;32;20166;-75
2021/04/30 02:13:07;;;;;;;7.93;3.50;;;;;;;;;;4361548;32;20165;-74
2021/04/30 02:15:35;;;;;;;13.27;3.90;;;;;;;;;;4362026;32;20139;-75
2021/04/30 02:18:00;;;;;;;14.23;4.90;;;;;;;;;;4362818;32;20139;-74
2021/04/30 02:20:26;;;;;;;16.37;4.03;;;;;;;;;;4361835;33;20161;-74
2021/04/30 02:22:51;;;;;;;13.90;4.27;;;;;;;;;;4347902;33;20159;-74
2021/04/30 02:25:17;;;;;;;16.70;4.00;;;;;;;;;;4361874;32;20209;-74
2021/04/30 02:27:43;;;;;;;21.27;6.00;;;;;;;;;;4362440;32;20185;-75
2021/04/30 02:30:09;;;;;;;17.10;4.67;;;;;;;;;;4353930;32;20678;-74
2021/04/30 02:32:35;;;;;;;15.27;4.40;;;;;;;;;;4346906;33;20139;-75
2021/04/30 02:35:01;;;;;;;12.07;4.37;;;;;;;;;;4347401;33;20143;-75
2021/04/30 02:37:26;;;;;;;13.10;4.70;;;;;;;;;;4347131;33;20518;-75
2021/04/30 02:39:52;;;;;;;13.53;4.57;;;;;;;;;;4346558;33;20166;-75
2021/04/30 02:42:17;;;;;;;13.10;3.93;;;;;;;;;;4346600;33;20135;-74
2021/04/30 02:44:44;;;;;;;13.63;3.97;;;;;;;;;;4347198;33;20166;-74
2021/04/30 02:47:09;;;;;;;21.20;5.40;;;;;;;;;;4346219;33;20274;-74
2021/04/30 02:49:47;;;;;;;15.20;5.30;;;;;;;;;;4346468;33;20504;-74
2021/04/30 02:52:16;;;;;;;16.23;5.90;;;;;;;;;;4346780;33;20127;-74
2021/04/30 02:54:41;;;;;;;17.57;5.23;;;;;;;;;;4346264;33;20477;-74
2021/04/30 02:57:07;;;;;;;14.97;5.00;;;;;;;;;;4346688;33;20159;-75
2021/04/30 02:59:32;;;;;;;19.80;4.70;;;;;;;;;;4333519;33;20195;-74
2021/04/30 03:01:58;;;;;;;18.30;4.80;;;;;;;;;;4345908;33;20194;-73
2021/04/30 03:04:26;;;;;;;11.10;5.00;;;;;;;;;;4346098;33;20135;-74
2021/04/30 03:06:51;;;;;;;10.90;4.27;;;;;;;;;;4346620;33;20542;-73
2021/04/30 03:09:16;;;;;;;12.83;5.00;;;;;;;;;;4346206;33;20178;-73
2021/04/30 03:11:42;;;;;;;17.93;5.67;;;;;;;;;;4345758;33;20162;-74
2021/04/30 03:14:07;;;;;;;13.63;5.37;;;;;;;;;;4345908;33;20587;-75
2021/04/30 03:16:33;;;;;;;15.13;5.67;;;;;;;;;;4345873;33;20135;-74
2021/04/30 03:18:58;;;;;;;19.30;5.43;;;;;;;;;;4345674;33;20319;-74
2021/04/30 03:21:23;;;;;;;15.83;5.53;;;;;;;;;;4332407;33;20167;-74
2021/04/30 03:23:48;;;;;;;13.07;5.00;;;;;;;;;;4332713;33;20229;-75
2021/04/30 03:26:14;;;;;;;18.00;5.63;;;;;;;;;;4346533;33;20615;-75
2021/04/30 03:28:39;;;;;;;19.80;6.23;;;;;;;;;;4332275;33;20163;-72
2021/04/30 03:31:04;;;;;;;15.40;5.70;;;;;;;;;;4356291;33;20213;-74
2021/04/30 03:33:30;;;;;;;14.90;5.40;;;;;;;;;;4360935;32;20147;-74
2021/04/30 03:35:55;;;;;;;18.37;5.20;;;;;;;;;;4360362;33;20197;-75
2021/04/30 03:38:20;;;;;;;17.60;6.20;;;;;;;;;;4360341;33;20178;-74
2021/04/30 03:40:45;;;;;;;12.50;5.57;;;;;;;;;;4360679;32;20138;-73
2021/04/30 03:43:11;;;;;;;18.60;6.20;;;;;;;;;;4360610;33;20470;-74
2021/04/30 03:45:36;;;;;;;20.50;5.73;;;;;;;;;;4360568;32;20139;-73
2021/04/30 03:48:01;;;;;;;14.03;5.77;;;;;;;;;;4361166;32;20140;-75
2021/04/30 03:50:26;;;;;;;26.23;7.03;;;;;;;;;;4360654;32;20135;-74
2021/04/30 03:52:51;;;;;;;18.30;5.60;;;;;;;;;;4360075;33;20478;-73
2021/04/30 03:55:17;;;;;;;14.70;5.53;;;;;;;;;;4360495;33;20202;-73
2021/04/30 03:57:42;;;;;;;19.17;6.33;;;;;;;;;;4360763;32;20161;-74
2021/04/30 04:00:08;;;;;;;18.43;6.87;;;;;;;;;;4360066;33;20150;-72
2021/04/30 04:02:33;;;;;;;12.97;6.00;;;;;;;;;;4361377;32;20538;-74
2021/04/30 04:04:58;;;;;;;17.00;6.10;;;;;;;;;;4360097;33;20213;-73
2021/04/30 04:07:23;;;;;;;20.60;6.50;;;;;;;;;;4360538;32;20135;-75
2021/04/30 04:09:48;;;;;;;17.13;6.20;;;;;;;;;;4359927;33;20584;-73
2021/04/30 04:12:21;;;;;;;20.80;6.83;;;;;;;;;;4360329;32;20606;-74
2021/04/30 04:14:46;;;;;;;15.67;7.13;;;;;;;;;;4360326;33;20205;-74
2021/04/30 04:17:16;;;;;;;16.17;6.83;;;;;;;;;;4360403;33;20194;-75
2021/04/30 04:19:41;;;;;;;24.03;8.03;;;;;;;;;;4360753;33;20143;-74
2021/04/30 04:22:07;;;;;;;18.47;7.70;;;;;;;;;;4359885;33;20591;-74
2021/04/30 04:24:32;;;;;;;19.50;7.77;;;;;;;;;;4360673;33;20191;-75
2021/04/30 04:26:57;;;;;;;19.97;7.83;;;;;;;;;;4360319;33;20139;-73
2021/04/30 04:29:23;;;;;;;21.77;8.17;;;;;;;;;;4360106;33;20236;-73
2021/04/30 04:31:48;;;;;;;16.27;8.17;;;;;;;;;;4361116;33;20135;-75
2021/04/30 04:34:13;;;;;;;24.43;8.67;;;;;;;;;;4360292;33;20537;-73
2021/04/30 04:36:38;;;;;;;25.70;9.20;;;;;;;;;;4360180;33;20174;-74
2021/04/30 04:39:04;;;;;;;23.00;9.70;;;;;;;;;;4360358;33;20166;-75
2021/04/30 04:41:29;;;;;;;22.30;10.00;;;;;;;;;;4359842;33;20193;-74
2021/04/30 04:43:54;;;;;;;20.47;8.90;;;;;;;;;;4360668;33;20159;-73
2021/04/30 04:46:19;;;;;;;24.37;10.80;;;;;;;;;;4360186;33;20131;-75
2021/04/30 04:48:45;;;;;;;22.87;10.33;;;;;;;;;;4360854;33;20259;-74
2021/04/30 04:51:10;;;;;;;29.50;10.47;;;;;;;;;;4360332;33;20135;-72
2021/04/30 04:53:35;;;;;;;18.03;9.10;;;;;;;;;;4360239;33;20562;-75
2021/04/30 04:56:00;;;;;;;23.97;8.93;;;;;;;;;;4346224;33;20589;-74
2021/04/30 04:58:26;;;;;;;20.50;9.37;;;;;;;;;;4360186;33;20174;-73
2021/04/30 05:00:51;;;;;;;23.40;10.80;;;;;;;;;;4360103;33;20185;-74
2021/04/30 05:03:26;;;;;;;21.17;8.83;;;;;;;;;;4360199;33;20466;-74
2021/04/30 05:05:51;;;;;;;16.10;8.73;;;;;;;;;;4359869;33;20194;-73
2021/04/30 05:08:16;;;;;;;27.80;9.47;;;;;;;;;;4359631;33;20193;-74
2021/04/30 05:10:41;;;;;;;19.00;8.47;;;;;;;;;;4359684;33;20177;-76
2021/04/30 05:13:07;;;;;;;24.23;9.17;;;;;;;;;;4359678;33;20240;-74
2021/04/30 05:15:32;;;;;;;23.33;10.33;;;;;;;;;;4359889;33;20139;-74
2021/04/30 05:18:00;;;;;;;20.83;8.67;;;;;;;;;;4360238;33;20158;-73
2021/04/30 05:20:25;;;;;;;22.50;9.63;;;;;;;;;;4359883;33;20144;-72
2021/04/30 05:22:51;;;;;;;23.43;9.73;;;;;;;;;;4360131;33;20178;-74
2021/04/30 05:25:16;;;;;;;24.13;10.80;;;;;;;;;;4360033;32;20128;-75
2021/04/30 05:27:42;;;;;;;21.43;9.47;;;;;;;;;;4362311;32;20143;-75
2021/04/30 05:30:08;;;;;;;26.17;9.80;;;;;;;;;;4361893;32;20571;-73
2021/04/30 05:32:33;;;;;;;19.87;9.43;;;;;;;;;;4362740;32;20195;-72
2021/04/30 05:35:00;;;;;;;20.67;10.10;;;;;;;;;;4362629;32;20202;-74
2021/04/30 05:37:25;;;;;;;23.10;10.43;;;;;;;;;;4361945;32;20435;-73
2021/04/30 05:39:51;;;;;;;19.03;9.20;;;;;;;;;;4362112;32;20166;-71
2021/04/30 05:42:16;;;;;;;24.80;11.00;;;;;;;;;;4362000;32;20135;-72
2021/04/30 05:44:42;;;;;;;24.03;10.90;;;;;;;;;;4362163;32;20169;-72
2021/04/30 05:47:07;;;;;;;23.73;9.73;;;;;;;;;;4361955;32;20135;-71
2021/04/30 05:49:32;;;;;;;23.30;9.87;;;;;;;;;;4361903;32;20162;-75
2021/04/30 05:51:57;;;;;;;19.50;10.10;;;;;;;;;;4362205;32;20231;-74
2021/04/30 05:54:22;;;;;;;26.13;12.07;;;;;;;;;;4362032;32;20143;-73
2021/04/30 05:56:48;;;;;;;21.47;10.47;;;;;;;;;;4348284;33;20220;-72
2021/04/30 05:59:13;;;;;;;25.27;12.77;;;;;;;;;;4360601;32;20167;-73
2021/04/30 06:01:38;;;;;;;22.63;12.27;;;;;;;;;;4348587;33;20206;-71
2021/04/30 06:04:03;;;;;;;21.93;10.50;;;;;;;;;;4362113;32;20136;-71
2021/04/30 06:06:29;;;;;;;24.33;10.97;;;;;;;;;;4361795;32;20213;-75
2021/04/30 06:08:54;;;;;;;22.77;12.70;;;;;;;;;;4361924;32;20131;-73
2021/04/30 06:11:19;;;;;;;27.93;13.07;;;;;;;;;;4362572;32;20450;-74
2021/04/30 06:13:44;;;;;;;24.20;12.33;;;;;;;;;;4361809;32;20139;-71
2021/04/30 06:16:09;;;;;;;28.63;13.60;;;;;;;;;;4348006;33;20224;-73
2021/04/30 06:18:35;;;;;;;23.37;11.70;;;;;;;;;;4361717;33;20553;-73
2021/04/30 06:21:00;;;;;;;29.97;13.67;;;;;;;;;;4362472;32;20132;-70
2021/04/30 06:23:25;;;;;;;26.37;12.87;;;;;;;;;;4347676;33;20162;-69
2021/04/30 06:25:50;;;;;;;25.87;12.13;;;;;;;;;;4362086;32;20135;-73
2021/04/30 06:28:15;;;;;;;25.27;13.37;;;;;;;;;;4361485;32;20158;-71
2021/04/30 06:30:41;;;;;;;27.60;14.40;;;;;;;;;;4361539;32;20155;-68
2021/04/30 06:33:09;;;;;;;22.57;11.80;;;;;;;;;;4348158;33;20584;-76
2021/04/30 06:35:35;;;;;;;25.03;12.83;;;;;;;;;;4362367;32;20162;-75
2021/04/30 06:38:00;;;;;;;25.53;13.40;;;;;;;;;;4347187;33;20163;-73
2021/04/30 06:40:26;;;;;;;21.70;11.85;;;;;;;;;;4361181;32;20634;-72
2021/04/30 06:42:51;;;;;;;27.23;11.70;;;;;;;;;;4360839;32;20158;-73
2021/04/30 06:45:16;;;;;;;28.07;12.40;;;;;;;;;;4361084;32;20207;-74
2021/04/30 06:47:41;;;;;;;22.13;11.73;;;;;;;;;;4360143;32;20520;-71
2021/04/30 06:50:07;;;;;;;32.07;12.43;;;;;;;;;;4361108;32;20455;-72
2021/04/30 06:52:32;;;;;;;26.33;13.73;;;;;;;;;;4360791;32;20162;-73
2021/04/30 06:54:57;;;;;;;27.63;12.83;;;;;;;;;;4361143;32;20147;-73
2021/04/30 06:57:22;;;;;;;24.23;11.77;;;;;;;;;;4360791;32;20478;-72
2021/04/30 06:59:48;;;;;;;22.63;11.83;;;;;;;;;;4360888;32;20136;-70
2021/04/30 07:02:13;;;;;;;21.90;12.50;;;;;;;;;;4361284;32;20161;-72
2021/04/30 07:04:38;;;;;;;18.83;10.77;;;;;;;;;;4361835;32;20254;-74
2021/04/30 07:07:04;;;;;;;24.00;11.50;;;;;;;;;;4360770;32;20144;-74
2021/04/30 07:09:29;;;;;;;22.87;10.53;;;;;;;;;;4361268;32;20662;-70
2021/04/30 07:11:55;;;;;;;18.40;11.30;;;;;;;;;;4360308;32;20197;-74
2021/04/30 07:14:20;;;;;;;21.10;10.83;;;;;;;;;;4361188;32;20436;-74
2021/04/30 07:16:45;;;;;;;21.60;12.57;;;;;;;;;;4361120;32;20197;-74
2021/04/30 07:19:10;;;;;;;21.67;12.93;;;;;;;;;;4346979;33;20210;-70
2021/04/30 07:21:36;;;;;;;22.83;12.17;;;;;;;;;;4361053;32;20162;-73
2021/04/30 07:24:01;;;;;;;22.10;10.93;;;;;;;;;;4360772;32;20154;-71
2021/04/30 07:26:26;;;;;;;21.48;12.77;;;;;;;;;;4360930;32;20138;-73
2021/04/30 07:28:52;;;;;;;22.42;12.32;;;;;;;;;;4360503;32;20169;-68
2021/04/30 07:31:17;;;;;;;25.90;12.63;;;;;;;;;;4360455;32;20158;-72
2021/04/30 07:33:48;;;;;;;28.40;13.05;;;;;;;;;;4361348;32;20242;-71
2021/04/30 07:36:14;;;;;;;31.23;12.27;;;;;;;;;;4361293;32;20136;-69
2021/04/30 07:38:40;;;;;;;19.80;11.30;;;;;;;;;;4360961;32;20244;-72
2021/04/30 07:41:05;;;;;;;22.17;11.43;;;;;;;;;;4346969;33;20183;-71
2021/04/30 07:43:30;;;;;;;20.30;10.67;;;;;;;;;;4360923;32;20524;-75
2021/04/30 07:45:56;;;;;;;18.53;10.40;;;;;;;;;;4360744;32;20136;-74
2021/04/30 07:48:21;;;;;;;22.47;12.03;;;;;;;;;;4360029;32;20131;-72
2021/04/30 07:50:46;;;;;;;22.87;11.70;;;;;;;;;;4360810;32;20525;-72
2021/04/30 07:53:11;;;;;;;22.93;12.70;;;;;;;;;;4346702;33;20521;-71
2021/04/30 07:55:36;;;;;;;26.47;12.60;;;;;;;;;;4360718;32;20203;-71
2021/04/30 07:58:02;;;;;;;20.27;11.70;;;;;;;;;;4360251;32;20139;-74
2021/04/30 08:00:28;;;;;;;21.90;12.30;;;;;;;;;;4346289;33;20229;-73
2021/04/30 08:02:53;;;;;;;22.17;13.87;;;;;;;;;;4359791;32;20143;-73
2021/04/30 08:05:20;;;;;;;22.57;12.43;;;;;;;;;;4360121;33;20197;-72
2021/04/30 08:07:45;;;;;;;20.17;12.50;;;;;;;;;;4359792;32;20177;-71
2021/04/30 08:10:11;;;;;;;20.12;11.95;;;;;;;;;;4346298;33;20170;-73
2021/04/30 08:12:37;;;;;;;25.52;13.65;;;;;;;;;;4360554;32;20557;-70
2021/04/30 08:15:02;;;;;;;26.07;14.93;;;;;;;;;;4360104;33;20170;-73
2021/04/30 08:17:27;;;;;;;28.02;13.98;;;;;;;;;;4360470;33;20159;-74
2021/04/30 08:19:59;;;;;;;24.70;14.23;;;;;;;;;;4359988;33;20166;-74
2021/04/30 08:22:28;;;;;;;27.15;13.88;;;;;;;;;;4359641;33;20134;-72
2021/04/30 08:24:53;;;;;;;20.77;13.35;;;;;;;;;;4346095;33;20191;-73
2021/04/30 08:27:20;;;;;;;23.17;14.00;;;;;;;;;;4360230;33;20216;-72
2021/04/30 08:29:45;;;;;;;24.90;14.27;;;;;;;;;;4345872;33;20249;-73
2021/04/30 08:32:11;;;;;;;27.77;15.03;;;;;;;;;;4359476;33;20201;-72
2021/04/30 08:34:36;;;;;;;17.58;12.70;;;;;;;;;;4359517;33;20246;-73
2021/04/30 08:37:01;;;;;;;23.75;14.70;;;;;;;;;;4359914;33;20506;-75
2021/04/30 08:39:26;;;;;;;20.00;13.45;;;;;;;;;;4360267;33;20262;-74
2021/04/30 08:41:55;;;;;;;19.45;12.77;;;;;;;;;;4359245;33;20515;-73
2021/04/30 08:44:20;;;;;;;22.62;14.10;;;;;;;;;;4359181;33;20533;-74
2021/04/30 08:46:51;;;;;;;22.90;13.52;;;;;;;;;;4360123;33;20139;-71
2021/04/30 08:49:19;;;;;;;19.57;13.20;;;;;;;;;;4360166;33;20217;-72
2021/04/30 08:51:45;;;;;;;19.67;12.40;;;;;;;;;;4359399;33;20503;-70
2021/04/30 08:54:10;;;;;;;25.35;13.80;;;;;;;;;;4359707;33;20143;-72
2021/04/30 08:56:47;;;;;;;23.98;13.13;;;;;;;;;;4359868;33;20546;-75
2021/04/30 08:59:24;;;;;;;19.83;13.23;;;;;;;;;;4359885;32;20146;-74
2021/04/30 09:01:49;;;;;;;20.37;13.52;;;;;;;;;;4362558;33;20126;-74
2021/04/30 09:04:14;;;;;;;26.27;15.55;;;;;;;;;;4362042;32;20197;-74
2021/04/30 09:06:40;;;;;;;26.90;15.23;;;;;;;;;;4362836;32;20254;-71
2021/04/30 09:09:13;;;;;;;28.05;15.20;;;;;;;;;;4361825;32;20217;-73
2021/04/30 09:11:39;;;;;;;25.48;14.13;;;;;;;;;;4362571;32;20181;-74
2021/04/30 09:14:20;;;;;;;30.73;14.50;;;;;;;;;;4361848;32;20143;-74
2021/04/30 09:17:05;;;;;;;30.15;18.00;;;;;;;;;;4361720;32;20201;-72
2021/04/30 09:19:30;;;;;;;30.62;18.65;;;;;;;;;;4362486;32;20166;-69
2021/04/30 09:22:00;;;;;;;26.95;17.87;;;;;;;;;;4362536;32;20139;-70
2021/04/30 09:24:25;;;;;;;34.88;18.87;;;;;;;;;;4348270;33;20449;-70
2021/04/30 09:26:51;;;;;;;34.53;20.97;;;;;;;;;;4348771;33;20244;-71
2021/04/30 09:29:16;;;;;;;37.03;22.50;;;;;;;;;;4361860;32;20135;-72
2021/04/30 09:31:42;;;;;;;41.40;22.33;;;;;;;;;;4362927;32;20165;-71
2021/04/30 09:34:27;;;;;;;40.90;23.45;;;;;;;;;;4362106;32;20225;-68
2021/04/30 09:36:56;;;;;;;34.90;22.00;;;;;;;;;;4362041;32;20147;-71
2021/04/30 09:39:21;;;;;;;34.00;21.53;;;;;;;;;;4361833;32;20209;-72
2021/04/30 09:42:06;;;;;;;31.00;20.20;;;;;;;;;;4362082;33;20525;-69
2021/04/30 09:44:35;;;;;;;39.67;22.67;;;;;;;;;;4361700;32;20202;-71
2021/04/30 09:47:17;;;;;;;34.63;20.87;;;;;;;;;;4362617;32;20564;-72
2021/04/30 09:49:43;;;;;;;41.10;24.10;;;;;;;;;;4362375;32;20178;-74
2021/04/30 09:52:08;;;;;;;38.90;24.23;;;;;;;;;;4362250;32;20143;-70
2021/04/30 09:54:34;;;;;;;33.53;20.63;;;;;;;;;;4362188;32;20147;-72
2021/04/30 09:57:08;;;;;;;45.03;23.70;;;;;;;;;;4348971;33;20257;-70
2021/04/30 09:59:37;;;;;;;38.93;24.07;;;;;;;;;;4361706;32;20218;-71
2021/04/30 10:02:04;;;;;;;40.10;24.83;;;;;;;;;;4348740;33;20653;-72
2021/04/30 10:04:32;;;;;;;34.93;23.47;;;;;;;;;;4361838;32;20730;-72
2021/04/30 10:06:57;;;;;;;36.63;23.70;;;;;;;;;;4362248;32;20139;-75
2021/04/30 10:09:26;;;;;;;36.63;21.73;;;;;;;;;;4361348;32;20571;-70
2021/04/30 10:11:51;;;;;;;36.67;20.70;;;;;;;;;;4361389;32;20540;-68
2021/04/30 10:14:17;;;;;;;31.40;20.23;;;;;;;;;;4361802;32;20188;-72
2021/04/30 10:16:43;;;;;;;33.27;19.43;;;;;;;;;;4361844;32;20135;-72
2021/04/30 10:19:08;;;;;;;35.23;22.33;;;;;;;;;;4347980;33;20186;-72
2021/04/30 10:21:38;;;;;;;33.97;20.25;;;;;;;;;;4360024;32;20586;-72
2021/04/30 10:24:03;;;;;;;32.90;20.60;;;;;;;;;;4361366;32;20185;-72
2021/04/30 10:26:30;;;;;;;29.80;19.60;;;;;;;;;;4361133;32;20143;-68
2021/04/30 10:28:58;;;;;;;25.85;18.10;;;;;;;;;;4362073;32;20143;-73
2021/04/30 10:31:28;;;;;;;29.48;20.08;;;;;;;;;;4361374;32;20154;-73
2021/04/30 10:33:56;;;;;;;28.08;17.92;;;;;;;;;;4347661;33;20198;-72
2021/04/30 10:36:23;;;;;;;25.70;19.10;;;;;;;;;;4361121;32;20152;-68
2021/04/30 10:38:54;;;;;;;27.27;17.58;;;;;;;;;;4361130;32;20151;-69
2021/04/30 10:41:28;;;;;;;31.87;20.25;;;;;;;;;;4361275;32;20193;-72
2021/04/30 10:44:12;;;;;;;20.67;13.87;;;;;;;;;;4361304;32;20151;-72
2021/04/30 10:46:37;;;;;;;17.58;12.63;;;;;;;;;;4360630;33;20135;-71
2021/04/30 10:49:08;;;;;;;13.10;9.55;;;;;;;;;;4360555;32;20135;-69
2021/04/30 10:51:38;;;;;;;7.72;5.78;;;;;;;;;;4360417;32;20143;-69
2021/04/30 10:54:22;;;;;;;9.52;7.30;;;;;;;;;;4360987;32;20147;-69
2021/04/30 10:56:55;;;;;;;10.52;7.90;;;;;;;;;;4361853;32;20147;-71
2021/04/30 10:59:27;;;;;;;10.55;7.95;;;;;;;;;;4361637;32;20524;-71
2021/04/30 11:01:58;;;;;;;13.02;9.75;;;;;;;;;;4362457;32;20201;-71
2021/04/30 11:04:23;;;;;;;11.80;8.63;;;;;;;;;;4361219;32;20143;-69
2021/04/30 11:06:51;;;;;;;10.18;8.38;;;;;;;;;;4361564;32;20170;-72
2021/04/30 11:09:28;;;;;;;10.48;8.15;;;;;;;;;;4360682;32;20568;-68
2021/04/30 11:11:53;;;;;;;9.75;7.97;;;;;;;;;;4361358;32;20143;-72
2021/04/30 11:14:19;;;;;;;10.63;8.32;;;;;;;;;;4360330;32;20337;-69
2021/04/30 11:16:45;;;;;;;12.30;8.90;;;;;;;;;;4360869;32;20191;-72
2021/04/30 11:19:10;;;;;;;12.75;8.88;;;;;;;;;;4360439;32;20217;-67
2021/04/30 11:21:39;;;;;;;13.07;10.10;;;;;;;;;;4360037;32;20565;-74
2021/04/30 11:24:25;;;;;;;9.10;7.10;;;;;;;;;;4360134;32;20206;-73
2021/04/30 11:26:50;;;;;;;8.55;7.15;;;;;;;;;;4359469;32;20186;-69
2021/04/30 11:29:15;;;;;;;9.20;7.18;;;;;;;;;;4358929;32;20202;-73
2021/04/30 11:31:41;;;;;;;9.75;8.35;;;;;;;;;;4359464;32;20135;-71
2021/04/30 11:34:09;;;;;;;10.98;8.45;;;;;;;;;;4361192;32;20178;-73
2021/04/30 11:36:35;;;;;;;10.88;8.85;;;;;;;;;;4360251;33;20170;-71
2021/04/30 11:39:24;;;;;;;13.27;9.55;;;;;;;;;;4361365;32;20584;-74
2021/04/30 11:41:53;;;;;;;14.90;10.80;;;;;;;;;;4350670;33;20194;-72
2021/04/30 11:44:19;;;;;;;17.05;12.77;;;;;;;;;;4360975;32;20226;-73
2021/04/30 11:46:44;;;;;;;16.42;12.73;;;;;;;;;;4346626;33;20163;-74
2021/04/30 11:49:18;;;;;;;18.02;13.43;;;;;;;;;;4360259;32;20230;-73
2021/04/30 11:51:44;;;;;;;19.85;13.90;;;;;;;;;;4360660;32;20422;-73
2021/04/30 11:54:09;;;;;;;21.08;14.52;;;;;;;;;;4360252;32;20226;-73
2021/04/30 11:56:34;;;;;;;23.62;15.18;;;;;;;;;;4359654;33;20184;-74
2021/04/30 11:59:00;;;;;;;22.48;15.73;;;;;;;;;;4360548;32;20191;-73
2021/04/30 12:01:27;;;;;;;20.60;14.10;;;;;;;;;;4360108;32;20162;-72
2021/04/30 12:03:54;;;;;;;18.65;13.45;;;;;;;;;;4359941;32;20194;-74
2021/04/30 12:06:21;;;;;;;17.52;11.95;;;;;;;;;;4359969;32;20520;-74
2021/04/30 12:08:47;;;;;;;17.50;12.23;;;;;;;;;;4346183;33;20232;-74
2021/04/30 12:12:14;;;;;;;15.50;10.40;;;;;;;;;;4360132;32;20447;-74
2021/04/30 12:14:15;;;;;;;17.55;9.98;;;;;;;;;;4359446;33;20174;-72
2021/04/30 12:16:41;;;;;;;13.67;10.37;;;;;;;;;;4359814;33;20132;-74
2021/04/30 12:19:06;;;;;;;15.07;10.40;;;;;;;;;;4360073;33;20545;-73
2021/04/30 12:21:32;;;;;;;16.83;11.93;;;;;;;;;;4360732;33;20135;-74
2021/04/30 12:23:58;;;;;;;15.52;11.40;;;;;;;;;;4359825;33;20162;-75
2021/04/30 12:26:34;;;;;;;17.25;12.15;;;;;;;;;;4359956;33;20139;-71
2021/04/30 12:29:00;;;;;;;14.03;10.60;;;;;;;;;;4359648;33;20138;-73
2021/04/30 12:31:26;;;;;;;14.87;10.02;;;;;;;;;;4359526;33;20614;-75
2021/04/30 12:33:52;;;;;;;12.43;9.02;;;;;;;;;;4359594;33;20167;-73
2021/04/30 12:36:17;;;;;;;15.57;10.15;;;;;;;;;;4362122;33;20148;-75
2021/04/30 12:38:43;;;;;;;12.40;6.20;;;;;;;;;;4362979;32;20205;-73
2021/04/30 12:41:28;;;;;;;10.43;6.32;;;;;;;;;;4363177;32;20169;-73
2021/04/30 12:43:57;;;;;;;11.52;5.93;;;;;;;;;;4363044;32;20510;-75
2021/04/30 12:46:25;;;;;;;10.40;5.60;;;;;;;;;;4361785;32;20131;-72
2021/04/30 12:48:51;;;;;;;19.52;6.68;;;;;;;;;;4363039;32;20654;-72
2021/04/30 12:51:21;;;;;;;11.68;5.25;;;;;;;;;;4362710;32;20139;-74
2021/04/30 12:53:52;;;;;;;13.00;5.45;;;;;;;;;;4363447;32;20170;-74
2021/04/30 12:56:34;;;;;;;13.00;5.68;;;;;;;;;;4363426;32;20453;-75
2021/04/30 12:59:20;;;;;;;11.30;6.25;;;;;;;;;;4362869;32;20143;-76
2021/04/30 13:01:46;;;;;;;13.23;5.43;;;;;;;;;;4364233;32;20135;-71
2021/04/30 13:04:16;;;;;;;11.60;5.70;;;;;;;;;;4362593;32;20193;-73
2021/04/30 13:06:41;;;;;;;9.88;5.70;;;;;;;;;;4348810;33;20567;-74
2021/04/30 13:09:07;;;;;;;12.23;5.93;;;;;;;;;;4363164;32;20135;-73
2021/04/30 13:11:33;;;;;;;11.50;6.18;;;;;;;;;;4362686;32;20475;-75
2021/04/30 13:13:58;;;;;;;12.95;6.30;;;;;;;;;;4362035;32;20142;-75
2021/04/30 13:16:35;;;;;;;11.65;5.80;;;;;;;;;;4362322;32;20201;-75
2021/04/30 13:19:14;;;;;;;14.75;6.70;;;;;;;;;;4362923;32;20186;-74
2021/04/30 13:21:46;;;;;;;14.98;6.90;;;;;;;;;;4362845;32;20138;-74
2021/04/30 13:24:24;;;;;;;12.77;6.90;;;;;;;;;;4362031;32;20135;-74
2021/04/30 13:27:02;;;;;;;11.77;6.22;;;;;;;;;;4362317;32;20139;-73
2021/04/30 13:29:47;;;;;;;13.57;6.62;;;;;;;;;;4361608;32;20587;-74
2021/04/30 13:32:17;;;;;;;14.23;7.15;;;;;;;;;;4361012;33;20213;-73
2021/04/30 13:34:46;;;;;;;12.68;6.35;;;;;;;;;;4362393;32;20545;-74
2021/04/30 13:37:12;;;;;;;14.93;7.20;;;;;;;;;;4362185;32;20162;-73
2021/04/30 13:39:39;;;;;;;11.30;6.43;;;;;;;;;;4362569;32;20537;-73
2021/04/30 13:42:15;;;;;;;12.73;5.68;;;;;;;;;;4362456;32;20139;-73
2021/04/30 13:44:49;;;;;;;18.37;5.78;;;;;;;;;;4362913;32;20166;-74
2021/04/30 13:47:15;;;;;;;13.40;5.40;;;;;;;;;;4361744;32;20181;-74
2021/04/30 13:49:50;;;;;;;10.13;5.57;;;;;;;;;;4361900;32;20174;-72
2021/04/30 13:52:16;;;;;;;12.45;5.12;;;;;;;;;;4361698;32;20177;-75
2021/04/30 13:54:42;;;;;;;12.27;5.68;;;;;;;;;;4361374;32;20147;-74
2021/04/30 13:57:07;;;;;;;13.52;5.50;;;;;;;;;;4362027;32;20159;-75
2021/04/30 13:59:33;;;;;;;10.52;5.28;;;;;;;;;;4362576;32;20143;-73
2021/04/30 14:01:59;;;;;;;12.75;5.40;;;;;;;;;;4361968;32;20201;-72
2021/04/30 14:04:27;;;;;;;16.40;5.65;;;;;;;;;;4361811;32;20147;-72
2021/04/30 14:06:52;;;;;;;14.68;6.62;;;;;;;;;;4361343;32;20248;-72
2021/04/30 14:09:18;;;;;;;14.43;6.05;;;;;;;;;;4361334;32;20148;-72
2021/04/30 14:11:46;;;;;;;13.30;5.95;;;;;;;;;;4361018;32;20491;-74
2021/04/30 14:14:12;;;;;;;12.25;5.93;;;;;;;;;;4361673;32;20514;-69
2021/04/30 14:16:37;;;;;;;15.25;6.50;;;;;;;;;;4361589;32;20197;-73
2021/04/30 14:19:02;;;;;;;12.90;7.00;;;;;;;;;;4361268;32;20194;-73
2021/04/30 14:21:28;;;;;;;14.87;6.43;;;;;;;;;;4361233;33;20190;-74
2021/04/30 14:23:53;;;;;;;13.05;5.82;;;;;;;;;;4361894;32;20169;-74